Time;durP1;ratioP1;P1;durP2;ratioP2;P2;SDS_P1;SDS_P2;PMS_P1;PMS_P2;Temp;Humidity;BMP_temperature;BMP_pressure;BME280_temperature;BME280_humidity;BME280_pressure;Samples;Min_cycle;Max_cycle;Signal;HPM_P1;HPM_P2
2022/05/24 00:01:04;;;;;;;2.13;1.70;;;;;;;16.94;62.67;100749.06;5054017;27;102727;-60
2022/05/24 00:03:31;;;;;;;2.28;1.70;;;;;;;16.94;62.89;100746.34;5053058;27;104755;-61
2022/05/24 00:06:00;;;;;;;3.63;1.60;;;;;;;16.92;62.95;100748.59;5052427;27;102021;-61
2022/05/24 00:08:26;;;;;;;1.92;1.63;;;;;;;16.93;62.63;100754.91;5050204;27;102666;-61
2022/05/24 00:11:13;;;;;;;1.73;1.63;;;;;;;16.92;63.14;100747.78;5054024;27;102272;-61
2022/05/24 00:13:39;;;;;;;2.60;1.98;;;;;;;16.92;62.84;100748.59;5052313;27;103887;-61
2022/05/24 00:16:06;;;;;;;1.58;1.40;;;;;;;16.94;63.25;100751.81;5040913;27;103594;-60
2022/05/24 00:18:33;;;;;;;2.63;1.70;;;;;;;16.92;62.70;100754.09;5053129;27;101841;-61
2022/05/24 00:21:05;;;;;;;1.48;1.38;;;;;;;16.90;63.00;100750.03;5054679;27;102462;-61
2022/05/24 00:23:34;;;;;;;2.25;1.70;;;;;;;16.91;62.38;100743.41;5050280;27;104026;-61
2022/05/24 00:26:03;;;;;;;2.00;1.80;;;;;;;16.92;62.57;100751.34;5052343;27;102480;-61
2022/05/24 00:28:32;;;;;;;1.90;1.70;;;;;;;16.92;62.77;100748.59;5060999;27;102355;-61
2022/05/24 00:30:59;;;;;;;1.83;1.60;;;;;;;16.91;62.85;100752.44;5054582;27;101921;-61
2022/05/24 00:33:26;;;;;;;1.85;1.38;;;;;;;16.90;62.67;100741.78;5053017;27;103583;-60
2022/05/24 00:35:55;;;;;;;1.90;1.48;;;;;;;16.90;62.78;100755.53;5051305;27;102421;-61
2022/05/24 00:38:27;;;;;;;1.67;1.45;;;;;;;16.90;63.01;100750.03;5052904;27;101958;-60
2022/05/24 00:41:06;;;;;;;1.77;1.67;;;;;;;16.92;62.60;100754.09;5053807;27;101912;-61
2022/05/24 00:43:39;;;;;;;2.38;1.42;;;;;;;16.91;62.81;100766.19;5052234;27;104097;-61
2022/05/24 00:46:11;;;;;;;2.45;1.40;;;;;;;16.90;62.84;100761.84;5051710;27;102328;-60
2022/05/24 00:48:47;;;;;;;1.38;1.27;;;;;;;16.91;62.36;100757.94;5052607;27;102354;-61
2022/05/24 00:51:18;;;;;;;2.88;1.70;;;;;;;16.92;62.59;100764.28;5052161;27;102420;-61
2022/05/24 00:53:51;;;;;;;2.08;1.40;;;;;;;16.91;62.52;100763.44;5052602;27;103711;-61
2022/05/24 00:56:25;;;;;;;1.60;1.50;;;;;;;16.92;62.50;100767.84;5034503;27;102781;-61
2022/05/24 00:58:58;;;;;;;1.90;1.48;;;;;;;16.90;62.18;100761.84;5032806;27;102347;-61
2022/05/24 01:01:31;;;;;;;2.78;1.73;;;;;;;16.91;62.43;100762.63;5040739;27;102149;-60
2022/05/24 01:03:59;;;;;;;1.70;1.45;;;;;;;16.91;62.56;100766.19;5052285;27;103848;-61
2022/05/24 01:06:26;;;;;;;1.80;1.40;;;;;;;16.90;62.84;100767.31;5049746;27;102416;-61
2022/05/24 01:08:58;;;;;;;1.92;1.40;;;;;;;16.91;62.80;100757.94;5053131;27;102373;-61
2022/05/24 01:11:30;;;;;;;1.27;1.17;;;;;;;16.91;62.77;100757.94;5053979;27;102510;-61
2022/05/24 01:13:59;;;;;;;2.58;1.40;;;;;;;16.90;62.64;100756.34;5052483;27;103904;-61
2022/05/24 01:16:27;;;;;;;1.20;1.08;;;;;;;16.91;62.63;100760.69;5051522;27;102097;-61
2022/05/24 01:18:53;;;;;;;1.98;1.30;;;;;;;16.91;62.40;100765.38;5052720;27;102366;-61
2022/05/24 01:21:20;;;;;;;1.30;1.20;;;;;;;16.90;62.08;100767.31;5052098;27;102343;-61
2022/05/24 01:23:58;;;;;;;2.00;1.20;;;;;;;16.90;62.71;100767.31;5049834;27;103994;-61
2022/05/24 01:26:36;;;;;;;1.42;1.10;;;;;;;16.90;62.66;100770.06;5051209;27;102431;-60
2022/05/24 01:29:06;;;;;;;1.38;1.20;;;;;;;16.89;62.00;100765.72;5051906;27;102441;-61
2022/05/24 01:37:05;;;;;;;1.83;1.48;;;;;;;16.89;62.56;100765.72;5044913;27;102360;-60
2022/05/24 01:39:33;;;;;;;1.65;1.40;;;;;;;16.89;62.10;100762.97;5051480;27;102323;-61
2022/05/24 01:42:02;;;;;;;1.90;1.42;;;;;;;16.90;62.19;100769.28;5052932;27;102490;-61
2022/05/24 01:44:34;;;;;;;1.48;1.17;;;;;;;16.90;62.52;100772.03;5049928;27;103837;-61
2022/05/24 01:47:01;;;;;;;1.55;1.42;;;;;;;16.88;62.54;100769.59;5051784;27;102414;-61
2022/05/24 01:49:34;;;;;;;1.70;1.35;;;;;;;16.88;62.31;100775.09;5051189;27;102334;-60
2022/05/24 01:52:05;;;;;;;2.20;1.38;;;;;;;16.88;62.43;100768.75;5051865;27;102261;-61
2022/05/24 01:54:35;;;;;;;1.67;1.30;;;;;;;16.88;62.25;100780.59;5049434;27;103796;-60
2022/05/24 01:57:09;;;;;;;1.90;1.20;;;;;;;16.89;62.34;100773.16;5051425;27;101960;-61
2022/05/24 01:59:39;;;;;;;1.40;1.20;;;;;;;16.87;62.18;100770.69;5051030;27;102010;-61
2022/05/24 02:02:05;;;;;;;1.40;1.20;;;;;;;16.87;62.27;100767.94;5048566;27;102456;-61
2022/05/24 02:04:35;;;;;;;1.50;1.40;;;;;;;16.88;62.09;100769.59;5049872;27;103877;-61
2022/05/24 02:07:05;;;;;;;2.53;1.77;;;;;;;16.88;61.88;100777.00;5051492;27;101997;-61
2022/05/24 02:09:32;;;;;;;1.35;1.25;;;;;;;16.88;61.84;100771.50;5051733;27;101744;-61
2022/05/24 02:12:02;;;;;;;2.78;1.65;;;;;;;16.88;61.90;100775.09;5052860;27;102146;-61
2022/05/24 02:14:35;;;;;;;1.30;1.20;;;;;;;16.87;62.40;100780.88;5049616;27;104035;-61
2022/05/24 02:17:09;;;;;;;2.55;1.40;;;;;;;16.88;62.40;100788.00;5044685;27;101851;-61
2022/05/24 02:19:40;;;;;;;1.40;1.30;;;;;;;16.87;61.95;100778.94;5050699;27;102407;-61
2022/05/24 02:22:12;;;;;;;1.10;1.00;;;;;;;16.87;61.88;100784.44;5051770;27;102631;-61
2022/05/24 02:24:40;;;;;;;1.27;1.17;;;;;;;16.88;62.35;100779.75;5032334;27;103908;-61
2022/05/24 02:27:07;;;;;;;1.10;1.05;;;;;;;16.87;62.10;100784.44;5052005;27;102099;-61
2022/05/24 02:29:35;;;;;;;1.38;1.27;;;;;;;16.87;62.14;100789.94;5051223;27;102214;-60
2022/05/24 02:32:02;;;;;;;1.35;1.23;;;;;;;16.86;62.13;100793.81;5052589;27;102170;-61
2022/05/24 02:34:29;;;;;;;1.40;1.30;;;;;;;16.86;61.94;100793.81;5049922;27;104082;-61
2022/05/24 02:36:55;;;;;;;1.55;1.33;;;;;;;16.86;62.02;100799.31;5050748;27;102476;-61
2022/05/24 02:39:23;;;;;;;1.20;1.10;;;;;;;16.84;62.37;100796.09;5050076;27;102013;-61
2022/05/24 02:41:51;;;;;;;1.73;1.25;;;;;;;16.85;62.21;100802.38;5051830;27;102539;-61
2022/05/24 02:44:18;;;;;;;1.30;1.20;;;;;;;16.85;62.69;100800.44;5050854;27;104044;-61
2022/05/24 02:46:48;;;;;;;1.23;1.13;;;;;;;16.84;62.42;100796.09;5050184;27;102162;-61
2022/05/24 02:49:15;;;;;;;1.25;1.15;;;;;;;16.83;62.81;100794.44;5051817;27;101865;-61
2022/05/24 02:51:44;;;;;;;2.08;1.40;;;;;;;16.84;62.42;100795.25;5052548;27;102022;-61
2022/05/24 02:54:12;;;;;;;1.35;1.25;;;;;;;16.83;62.61;100799.94;5050110;27;104196;-61
2022/05/24 02:56:38;;;;;;;2.03;1.20;;;;;;;16.85;62.96;100808.69;5050144;27;104560;-61
2022/05/24 02:59:06;;;;;;;1.50;1.40;;;;;;;16.87;62.34;100808.38;5048439;27;102522;-61
2022/05/24 03:01:34;;;;;;;2.35;1.20;;;;;;;16.85;62.26;100808.69;5051134;27;102141;-61
2022/05/24 03:04:02;;;;;;;1.63;1.40;;;;;;;16.86;62.39;100810.31;5050843;27;104032;-61
2022/05/24 03:09:42;;;;;;;2.08;1.42;;;;;;;16.85;62.63;100814.19;5008160;28;102584;-61
2022/05/24 03:14:56;;;;;;;1.48;1.25;;;;;;;16.86;62.38;100815.81;5035777;27;104047;-60
2022/05/24 03:17:24;;;;;;;1.30;1.20;;;;;;;16.88;62.75;100818.22;5055063;27;102501;-61
2022/05/24 03:19:53;;;;;;;1.38;1.27;;;;;;;16.88;62.12;100819.06;5053907;27;102398;-60
2022/05/24 03:22:21;;;;;;;1.67;1.40;;;;;;;16.89;62.31;100826.19;5055268;27;102012;-60
2022/05/24 03:24:48;;;;;;;2.05;1.35;;;;;;;16.89;62.31;100819.88;5050642;27;104057;-61
2022/05/24 03:27:15;;;;;;;1.38;1.25;;;;;;;16.89;62.42;100817.94;5054333;27;102548;-61
2022/05/24 03:29:43;;;;;;;2.75;1.30;;;;;;;16.89;62.20;100826.19;5053936;27;102284;-61
2022/05/24 03:32:12;;;;;;;1.30;1.20;;;;;;;16.91;62.12;100823.13;5055119;27;102156;-61
2022/05/24 03:34:39;;;;;;;2.28;1.13;;;;;;;16.90;62.07;100816.81;5052246;27;103818;-61
2022/05/24 03:37:09;;;;;;;1.65;1.33;;;;;;;16.90;62.50;100822.31;5049882;27;102271;-61
2022/05/24 03:39:35;;;;;;;1.30;1.20;;;;;;;16.90;62.18;100811.31;5054073;27;101979;-61
2022/05/24 03:42:03;;;;;;;1.50;1.30;;;;;;;16.89;62.32;100817.94;5053720;27;102592;-61
2022/05/24 03:44:30;;;;;;;1.40;1.30;;;;;;;16.90;61.95;100816.81;5053611;27;104102;-60
2022/05/24 03:46:58;;;;;;;1.38;1.20;;;;;;;16.91;62.40;100812.94;5052911;27;102661;-61
2022/05/24 03:49:26;;;;;;;2.50;1.50;;;;;;;16.90;62.03;100814.06;5053903;27;101939;-60
2022/05/24 03:51:53;;;;;;;2.45;1.40;;;;;;;16.92;62.62;100813.75;5054918;27;102667;-61
2022/05/24 03:54:22;;;;;;;1.35;1.20;;;;;;;16.92;62.48;100816.50;5053743;27;103607;-60
2022/05/24 03:59:34;;;;;;;1.33;1.23;;;;;;;16.92;62.17;100820.06;5054151;27;101803;-61
2022/05/24 04:02:01;;;;;;;1.40;1.30;;;;;;;16.93;62.28;100815.38;5054163;27;102116;-61
2022/05/24 04:04:30;;;;;;;2.22;1.60;;;;;;;16.93;62.23;100816.19;5052378;27;104013;-61
2022/05/24 04:06:57;;;;;;;1.50;1.40;;;;;;;16.93;62.55;100813.44;5054475;27;102533;-61
2022/05/24 04:09:25;;;;;;;1.98;1.33;;;;;;;16.93;62.61;100809.88;5053226;27;102275;-61
2022/05/24 04:11:54;;;;;;;1.50;1.40;;;;;;;16.92;62.60;100809.06;5054483;27;102661;-61
2022/05/24 04:14:22;;;;;;;2.33;1.42;;;;;;;16.95;62.52;100813.13;5051350;27;104095;-61
2022/05/24 04:16:49;;;;;;;1.42;1.33;;;;;;;16.95;62.60;100813.97;5052883;27;101890;-60
2022/05/24 04:19:17;;;;;;;1.48;1.20;;;;;;;16.94;63.22;100815.06;5052604;27;102283;-61
2022/05/24 04:21:44;;;;;;;1.45;1.35;;;;;;;16.95;62.91;100816.69;5054394;27;102639;-61
2022/05/24 04:24:11;;;;;;;1.30;1.10;;;;;;;16.96;63.28;100815.56;5050853;27;104047;-61
2022/05/24 04:26:39;;;;;;;1.88;1.35;;;;;;;16.96;63.33;100818.31;5052573;27;102569;-61
2022/05/24 04:29:06;;;;;;;1.25;1.10;;;;;;;16.97;63.57;100814.44;5052275;27;102391;-60
2022/05/24 04:31:33;;;;;;;1.40;1.20;;;;;;;16.97;63.16;100817.19;5054175;27;102379;-61
2022/05/24 04:33:59;;;;;;;37.38;2.67;;;;;;;16.98;63.48;100824.31;5053059;27;103924;-60
2022/05/24 04:36:26;;;;;;;3.13;1.50;;;;;;;16.97;63.64;100817.19;5052588;27;102374;-61
2022/05/24 04:38:53;;;;;;;2.10;1.15;;;;;;;16.95;63.73;100819.44;5053378;27;102211;-61
2022/05/24 04:44:07;;;;;;;1.33;1.10;;;;;;;16.97;64.18;100824.63;5052929;27;103857;-60
2022/05/24 04:49:22;;;;;;;10.57;2.00;;;;;;;16.98;64.05;100823.50;5032855;28;102365;-61
2022/05/24 04:51:52;;;;;;;3.58;1.80;;;;;;;16.99;63.88;100820.44;5033541;28;102329;-61
2022/05/24 04:54:19;;;;;;;2.28;1.50;;;;;;;17.01;63.66;100822.88;5032533;27;103886;-61
2022/05/24 04:56:46;;;;;;;5.15;1.20;;;;;;;17.02;63.74;100825.31;5035877;27;102396;-61
2022/05/24 04:59:16;;;;;;;14.65;2.00;;;;;;;17.01;64.35;100829.19;5050333;27;102098;-61
2022/05/24 05:01:43;;;;;;;9.90;1.67;;;;;;;17.02;63.79;100830.81;5051093;27;102900;-61
2022/05/24 05:04:10;;;;;;;8.88;1.50;;;;;;;17.03;63.94;100821.44;5052667;27;103873;-61
2022/05/24 05:06:41;;;;;;;2.83;1.55;;;;;;;17.05;63.95;100819.19;5053095;27;101979;-61
2022/05/24 05:09:09;;;;;;;1.38;1.10;;;;;;;17.08;63.89;100817.75;5052856;27;102258;-61
2022/05/24 05:11:36;;;;;;;1.50;1.23;;;;;;;17.12;64.10;100823.44;5052817;27;102858;-61
2022/05/24 05:14:02;;;;;;;1.92;1.30;;;;;;;17.13;63.69;100822.31;5052645;27;103930;-61
2022/05/24 05:16:31;;;;;;;1.92;1.30;;;;;;;17.15;63.80;100822.81;5051425;27;102497;-61
2022/05/24 05:18:57;;;;;;;1.98;1.27;;;;;;;17.16;63.46;100824.44;5052990;27;101937;-61
2022/05/24 05:21:28;;;;;;;1.52;1.10;;;;;;;17.17;63.50;100826.88;5052075;27;102541;-61
2022/05/24 05:23:55;;;;;;;1.17;1.08;;;;;;;17.19;63.49;100830.13;5052364;27;104009;-61
2022/05/24 05:26:21;;;;;;;1.80;0.95;;;;;;;17.20;63.55;100819.94;5048749;27;103106;-61
2022/05/24 05:28:48;;;;;;;1.30;1.20;;;;;;;17.21;63.58;100827.88;5051679;27;102010;-61
2022/05/24 05:31:22;;;;;;;1.20;1.10;;;;;;;17.23;63.61;100824.81;5050529;27;102424;-61
2022/05/24 05:33:50;;;;;;;1.55;1.30;;;;;;;17.26;63.93;100830.50;5049881;27;103919;-60
2022/05/24 05:36:19;;;;;;;3.27;1.03;;;;;;;17.28;63.51;100827.44;5052356;27;102317;-61
2022/05/24 05:38:47;;;;;;;2.85;1.23;;;;;;;17.30;63.96;100822.44;5052294;27;102255;-61
2022/05/24 05:41:15;;;;;;;1.90;1.13;;;;;;;17.32;63.51;100822.94;5042372;27;102135;-61
2022/05/24 05:43:42;;;;;;;1.42;0.95;;;;;;;17.34;63.96;100823.41;5045801;27;103832;-61
2022/05/24 05:46:09;;;;;;;4.82;1.38;;;;;;;17.36;63.99;100826.69;5046923;27;102123;-61
2022/05/24 05:48:36;;;;;;;1.13;1.00;;;;;;;17.39;63.38;100828.81;5048496;27;102125;-61
2022/05/24 05:51:06;;;;;;;1.30;1.20;;;;;;;17.40;63.42;100835.94;5042691;27;102710;-61
2022/05/24 05:53:33;;;;;;;1.17;1.00;;;;;;;17.42;63.67;100838.38;5042705;27;104096;-61
2022/05/24 05:56:01;;;;;;;1.27;1.10;;;;;;;17.43;63.45;100837.25;5045258;27;102440;-61
2022/05/24 05:58:30;;;;;;;1.30;1.20;;;;;;;17.44;63.38;100834.16;5040162;27;102361;-61
2022/05/24 06:00:57;;;;;;;1.83;1.13;;;;;;;17.46;63.56;100853.13;5043652;27;102163;-61
2022/05/24 06:03:23;;;;;;;1.38;1.27;;;;;;;17.45;63.64;100844.03;5043092;27;104330;-61
2022/05/24 06:05:52;;;;;;;1.27;1.17;;;;;;;17.48;63.31;100843.41;5039385;27;102375;-61
2022/05/24 06:08:21;;;;;;;2.33;1.30;;;;;;;17.49;63.12;100846.97;5051713;27;102297;-61
2022/05/24 06:10:49;;;;;;;1.67;1.20;;;;;;;17.49;63.20;100845.06;5052724;27;102572;-61
2022/05/24 06:13:17;;;;;;;1.50;1.30;;;;;;;17.50;62.78;100841.16;5051004;27;103529;-61
2022/05/24 06:15:47;;;;;;;2.23;1.10;;;;;;;17.50;63.00;100843.91;5051990;27;102599;-61
2022/05/24 06:18:14;;;;;;;1.30;1.20;;;;;;;17.51;62.99;100841.97;5051601;27;102567;-61
2022/05/24 06:20:42;;;;;;;2.17;1.02;;;;;;;17.51;63.31;100841.97;5048356;27;102411;-61
2022/05/24 06:23:09;;;;;;;1.20;1.10;;;;;;;17.52;62.89;100844.41;5030652;27;103944;-61
2022/05/24 06:25:39;;;;;;;1.77;1.20;;;;;;;17.52;63.40;100849.91;5037057;27;102768;-61
2022/05/24 06:28:06;;;;;;;2.05;1.30;;;;;;;17.55;62.80;100848.47;5051022;27;102343;-61
2022/05/24 06:30:34;;;;;;;1.08;1.00;;;;;;;17.56;63.10;100852.84;5053114;27;103226;-61
2022/05/24 06:33:01;;;;;;;1.40;1.30;;;;;;;17.54;63.27;100847.66;5045657;27;103944;-61
2022/05/24 06:35:28;;;;;;;1.75;1.40;;;;;;;17.57;63.22;100850.94;5043528;27;102565;-60
2022/05/24 06:37:54;;;;;;;1.20;1.10;;;;;;;17.59;62.46;100854.97;5048563;27;102296;-61
2022/05/24 06:40:21;;;;;;;1.02;0.90;;;;;;;17.60;62.81;100853.88;5032676;27;102359;-61
2022/05/24 06:42:49;;;;;;;1.20;1.10;;;;;;;17.62;62.11;100853.53;5052323;27;104154;-61
2022/05/24 06:45:16;;;;;;;1.83;1.20;;;;;;;17.62;62.97;100859.03;5055125;27;101997;-61
2022/05/24 06:47:43;;;;;;;1.50;1.35;;;;;;;17.61;62.86;100860.16;5054249;27;102270;-61
2022/05/24 06:50:13;;;;;;;6.82;3.17;;;;;;;17.61;62.85;100857.41;5055491;27;102112;-61
2022/05/24 06:52:39;;;;;;;2.60;1.38;;;;;;;17.62;62.87;100856.28;5048366;27;103865;-61
2022/05/24 06:55:08;;;;;;;1.55;1.30;;;;;;;17.63;62.60;100866.16;5034227;27;102480;-61
2022/05/24 06:57:34;;;;;;;1.50;1.40;;;;;;;17.65;61.82;100863.91;5043614;27;102297;-61
2022/05/24 07:02:59;;;;;;;1.75;1.50;;;;;;;17.66;62.11;100871.84;5052358;27;103859;-61
2022/05/24 07:05:26;;;;;;;1.60;1.20;;;;;;;17.66;62.24;100866.34;5055104;27;101836;-62
2022/05/24 07:07:53;;;;;;;1.95;1.67;;;;;;;17.67;62.10;100867.97;5053792;27;102445;-61
2022/05/24 07:10:19;;;;;;;1.83;1.50;;;;;;;17.67;62.31;100875.41;5054642;27;102766;-61
2022/05/24 07:12:46;;;;;;;1.20;1.10;;;;;;;17.68;62.14;100871.53;5053344;27;103919;-61
2022/05/24 07:15:14;;;;;;;1.15;1.05;;;;;;;17.69;61.95;100876.72;5054401;27;101925;-61
2022/05/24 07:17:41;;;;;;;1.13;1.10;;;;;;;17.70;62.00;100867.31;5053459;27;101857;-61
2022/05/24 07:20:09;;;;;;;1.25;1.15;;;;;;;17.70;61.97;100883.03;5055113;27;102399;-60
2022/05/24 07:22:37;;;;;;;2.05;1.60;;;;;;;17.71;62.07;100879.19;5052333;27;104030;-60
2022/05/24 07:25:06;;;;;;;3.13;1.27;;;;;;;17.71;62.47;100873.69;5051670;27;101987;-61
2022/05/24 07:27:33;;;;;;;1.45;1.35;;;;;;;17.70;62.46;100880.28;5048814;27;102289;-60
2022/05/24 07:30:00;;;;;;;1.83;1.50;;;;;;;17.66;62.69;100877.34;5051008;27;102225;-61
2022/05/24 07:32:28;;;;;;;1.30;1.20;;;;;;;17.66;62.73;100865.53;5051213;27;104206;-61
2022/05/24 07:34:56;;;;;;;2.00;1.40;;;;;;;17.67;62.67;100872.66;5052746;27;103024;-60
2022/05/24 07:37:23;;;;;;;1.40;1.30;;;;;;;17.68;62.52;100875.09;5043820;27;102362;-60
2022/05/24 07:45:47;;;;;;;1.90;1.35;;;;;;;17.68;62.40;100874.31;5050008;27;102726;-61
2022/05/24 07:48:09;;;;;;;2.40;1.20;;;;;;;17.72;61.81;100886.31;5053771;27;102018;-61
2022/05/24 07:50:36;;;;;;;1.35;1.25;;;;;;;17.72;62.26;100881.59;5054505;27;102535;-61
2022/05/24 07:53:05;;;;;;;1.65;1.55;;;;;;;17.73;62.26;100885.16;5050683;27;103871;-60
2022/05/24 07:55:32;;;;;;;2.28;1.50;;;;;;;17.77;61.59;100877.94;5050489;27;102246;-61
2022/05/24 07:57:58;;;;;;;1.80;1.30;;;;;;;17.78;61.73;100874.06;5049938;27;102062;-60
2022/05/24 08:00:26;;;;;;;1.63;1.50;;;;;;;17.75;61.97;100875.50;5050194;27;102428;-62
2022/05/24 08:02:53;;;;;;;1.50;1.40;;;;;;;17.71;62.62;100874.47;5047508;27;103898;-60
2022/05/24 08:05:22;;;;;;;3.05;1.50;;;;;;;17.67;62.55;100873.50;5047949;27;102090;-61
2022/05/24 08:07:50;;;;;;;1.88;1.70;;;;;;;17.63;62.74;100871.66;5043535;27;102077;-61
2022/05/24 08:10:18;;;;;;;1.70;1.60;;;;;;;17.62;62.98;100875.56;5051343;27;102322;-60
2022/05/24 08:12:44;;;;;;;2.00;1.48;;;;;;;17.60;63.30;100872.28;5052615;27;103948;-60
2022/05/24 08:15:12;;;;;;;2.45;1.67;;;;;;;17.59;63.69;100876.19;5053693;27;101933;-60
2022/05/24 08:17:45;;;;;;;1.95;1.38;;;;;;;17.57;63.11;100876.50;5052651;27;102287;-60
2022/05/24 08:20:12;;;;;;;1.50;1.40;;;;;;;17.56;63.50;100882.31;5057697;27;102372;-61
2022/05/24 08:22:41;;;;;;;2.13;1.42;;;;;;;17.56;63.50;100882.31;5059562;27;103880;-61
2022/05/24 08:25:10;;;;;;;1.90;1.55;;;;;;;17.53;63.65;100879.06;5053361;27;102028;-60
2022/05/24 08:27:37;;;;;;;1.70;1.60;;;;;;;17.52;63.63;100879.38;5050304;27;102254;-61
2022/05/24 08:30:06;;;;;;;2.63;1.90;;;;;;;17.52;63.30;100882.13;5054185;27;102063;-61
2022/05/24 08:32:34;;;;;;;1.70;1.60;;;;;;;17.50;63.38;100887.94;5051729;27;103911;-61
2022/05/24 08:35:01;;;;;;;1.60;1.48;;;;;;;17.49;63.89;100889.09;5053450;27;102178;-61
2022/05/24 08:37:29;;;;;;;1.92;1.60;;;;;;;17.48;63.43;100894.88;5045532;27;102308;-61
2022/05/24 08:39:59;;;;;;;1.75;1.65;;;;;;;17.49;63.56;100899.25;5053103;27;102189;-61
2022/05/24 08:42:31;;;;;;;1.80;1.70;;;;;;;17.48;64.04;100895.69;5052098;27;103982;-61
2022/05/24 08:50:41;;;;;;;2.58;1.52;;;;;;;17.50;63.76;100879.69;5039811;27;102258;-60
2022/05/24 08:53:14;;;;;;;1.65;1.55;;;;;;;17.50;63.38;100890.69;5045161;27;103987;-60
2022/05/24 08:55:43;;;;;;;1.60;1.50;;;;;;;17.50;63.63;100895.41;5045937;27;102601;-60
2022/05/24 08:58:27;;;;;;;1.48;1.38;;;;;;;17.51;63.73;100891.50;5050366;27;102206;-60
2022/05/24 09:00:55;;;;;;;1.58;1.40;;;;;;;17.50;63.80;100890.69;5054006;27;102004;-60
2022/05/24 09:03:25;;;;;;;1.70;1.60;;;;;;;17.50;63.68;100889.88;5049232;27;103916;-61
2022/05/24 09:05:57;;;;;;;1.50;1.40;;;;;;;17.49;63.83;100888.25;5052077;27;102546;-60
2022/05/24 09:08:28;;;;;;;2.35;1.63;;;;;;;17.48;63.77;100892.94;5046082;27;102438;-60
2022/05/24 09:11:08;;;;;;;1.90;1.80;;;;;;;17.47;64.03;100891.31;5049496;27;102331;-61
2022/05/24 09:13:57;;;;;;;1.80;1.60;;;;;;;17.46;63.61;100895.22;5052341;27;103971;-61
2022/05/24 09:16:39;;;;;;;1.70;1.60;;;;;;;17.45;63.69;100893.56;5052851;27;102419;-60
2022/05/24 09:19:17;;;;;;;1.85;1.33;;;;;;;17.45;64.20;100898.25;5052039;27;102191;-60
2022/05/24 09:21:47;;;;;;;1.80;1.48;;;;;;;17.45;64.31;100892.75;5050712;27;102323;-60
2022/05/24 09:24:26;;;;;;;1.60;1.42;;;;;;;17.46;64.62;100892.47;5054160;27;103765;-60
2022/05/24 09:27:11;;;;;;;1.40;1.30;;;;;;;17.47;64.29;100885.81;5046016;27;102085;-60
2022/05/24 09:29:58;;;;;;;1.73;1.40;;;;;;;17.48;63.72;100881.94;5048448;27;102375;-60
2022/05/24 09:32:38;;;;;;;1.60;1.50;;;;;;;17.49;64.30;100882.75;5045452;27;102681;-60
2022/05/24 09:35:20;;;;;;;3.40;1.67;;;;;;;17.49;63.73;100883.56;5042658;27;103770;-60
2022/05/24 09:38:08;;;;;;;2.65;1.90;;;;;;;17.48;63.75;100881.94;5050504;27;102485;-60
2022/05/24 09:40:48;;;;;;;1.63;1.52;;;;;;;17.47;64.06;100885.81;5052071;27;101766;-61
2022/05/24 09:43:19;;;;;;;1.70;1.60;;;;;;;17.47;63.74;100883.06;5047323;27;102414;-60
2022/05/24 09:45:52;;;;;;;1.58;1.48;;;;;;;17.45;64.04;100888.06;5047744;27;104056;-60
2022/05/24 09:48:22;;;;;;;1.67;1.58;;;;;;;17.45;63.83;100888.06;5050921;27;102578;-60
2022/05/24 09:50:51;;;;;;;1.52;1.42;;;;;;;17.44;64.50;100897.44;5051893;27;102533;-60
2022/05/24 09:53:22;;;;;;;1.67;1.58;;;;;;;17.44;64.53;100902.94;5040468;27;101996;-60
2022/05/24 09:55:52;;;;;;;1.85;1.75;;;;;;;17.43;64.51;100895.03;5046026;27;103950;-60
2022/05/24 09:58:23;;;;;;;1.65;1.55;;;;;;;17.43;64.33;100900.53;5041141;27;102422;-60
2022/05/24 10:00:52;;;;;;;1.77;1.67;;;;;;;17.41;64.51;100898.06;5044217;27;102700;-60
2022/05/24 10:03:22;;;;;;;;;;;;;;;17.41;64.20;100897.25;5048944;27;102181;-60
2022/05/24 10:06:12;;;;;;;1.40;1.30;;;;;;;17.40;64.12;100895.63;5051830;27;103934;-62
2022/05/24 10:08:44;;;;;;;1.67;1.40;;;;;;;17.40;64.65;100898.41;5048624;27;102671;-60
2022/05/24 10:11:34;;;;;;;1.80;1.70;;;;;;;17.39;64.22;100894.84;5049015;27;102554;-60
2022/05/24 10:14:20;;;;;;;1.70;1.60;;;;;;;17.39;64.18;100888.53;5045523;27;102572;-60
2022/05/24 10:16:57;;;;;;;1.42;1.33;;;;;;;17.39;64.56;100888.53;5050401;27;103885;-60
2022/05/24 10:19:40;;;;;;;2.30;1.58;;;;;;;17.39;64.42;100883.81;5051460;27;102388;-60
2022/05/24 10:22:20;;;;;;;1.60;1.50;;;;;;;17.39;64.33;100883.81;5051229;27;102127;-60
2022/05/24 10:25:02;;;;;;;1.73;1.63;;;;;;;17.40;64.60;100879.13;5052191;27;102263;-60
2022/05/24 10:27:38;;;;;;;1.60;1.50;;;;;;;17.41;64.62;100884.31;5051237;27;104160;-60
2022/05/24 10:30:08;;;;;;;1.95;1.50;;;;;;;17.41;64.84;100881.56;5032291;27;102372;-60
2022/05/24 10:38:51;;;;;;;1.65;1.55;;;;;;;17.40;64.72;100868.94;5032906;27;104120;-60
2022/05/24 10:41:24;;;;;;;1.80;1.70;;;;;;;17.42;64.88;100872.19;5041158;27;102008;-60
2022/05/24 10:44:00;;;;;;;1.65;1.55;;;;;;;17.43;64.57;100879.31;5043586;27;102710;-60
2022/05/24 10:46:35;;;;;;;1.40;1.30;;;;;;;17.43;64.46;100865.56;5044828;27;102127;-60
2022/05/24 10:49:10;;;;;;;1.60;1.38;;;;;;;17.44;64.86;100869.13;5050719;27;104424;-60
2022/05/24 10:51:48;;;;;;;1.63;1.50;;;;;;;17.44;64.93;100864.44;5047099;27;102027;-64
2022/05/24 10:54:30;;;;;;;1.80;1.52;;;;;;;17.44;64.53;100869.94;5043871;27;102431;-60
2022/05/24 10:57:04;;;;;;;1.58;1.48;;;;;;;17.44;64.83;100858.94;5051638;27;102414;-60
2022/05/24 10:59:47;;;;;;;1.75;1.65;;;;;;;17.44;64.83;100864.44;5050635;27;103716;-60
2022/05/24 11:02:23;;;;;;;1.70;1.60;;;;;;;17.43;64.75;100867.50;5050929;27;102162;-60
2022/05/24 11:04:55;;;;;;;1.40;1.30;;;;;;;17.43;64.45;100868.31;5042832;27;102342;-61
2022/05/24 11:07:23;;;;;;;1.55;1.45;;;;;;;17.43;64.60;100871.06;5031914;28;102372;-61
2022/05/24 11:09:57;;;;;;;2.20;1.50;;;;;;;17.44;64.49;100861.69;5032614;27;103970;-60
2022/05/24 11:12:32;;;;;;;13.25;2.90;;;;;;;17.46;64.68;100850.38;5048983;27;102123;-60
2022/05/24 11:15:05;;;;;;;7.75;1.80;;;;;;;17.44;65.01;100864.44;5049529;27;102531;-60
2022/05/24 11:17:33;;;;;;;3.30;1.98;;;;;;;17.43;64.52;100857.31;5039343;27;102585;-60
2022/05/24 11:20:04;;;;;;;2.63;1.70;;;;;;;17.44;65.12;100858.13;5046521;27;104096;-60
2022/05/24 11:22:38;;;;;;;12.60;2.53;;;;;;;17.43;65.22;100846.31;5047432;27;102931;-60
2022/05/24 11:25:16;;;;;;;6.05;1.70;;;;;;;17.45;65.30;100845.97;5040883;27;102477;-60
2022/05/24 11:27:47;;;;;;;4.30;1.60;;;;;;;17.45;64.67;100848.72;5043980;27;102033;-60
2022/05/24 11:30:19;;;;;;;3.10;1.70;;;;;;;17.43;64.85;100840.81;5052322;27;103981;-60
2022/05/24 11:32:50;;;;;;;2.58;1.48;;;;;;;17.42;64.83;100844.69;5048510;27;102752;-60
2022/05/24 11:35:26;;;;;;;4.13;1.70;;;;;;;17.44;64.49;100847.13;5050557;27;101988;-60
2022/05/24 11:37:55;;;;;;;1.55;1.40;;;;;;;17.43;65.03;100838.06;5047294;27;102416;-60
2022/05/24 11:40:33;;;;;;;1.63;1.52;;;;;;;17.42;65.33;100841.94;5054104;27;104077;-60
2022/05/24 11:43:01;;;;;;;3.20;1.30;;;;;;;17.42;64.84;100850.19;5052312;27;102304;-60
2022/05/24 11:45:57;;;;;;;2.63;1.88;;;;;;;17.42;65.15;100833.69;5047093;27;102254;-60
2022/05/24 11:48:43;;;;;;;1.50;1.40;;;;;;;17.43;64.67;100845.50;5046436;27;102698;-60
2022/05/24 11:51:41;;;;;;;1.75;1.65;;;;;;;17.42;64.67;100844.69;5040279;27;103129;-59
2022/05/24 11:54:55;;;;;;;3.30;1.48;;;;;;;17.43;65.24;100848.25;5048211;27;102599;-60
2022/05/24 11:57:39;;;;;;;1.67;1.58;;;;;;;17.41;65.20;100843.03;5025985;27;102455;-60
2022/05/24 12:00:08;;;;;;;1.73;1.63;;;;;;;17.42;65.24;100844.69;5054727;27;102476;-60
2022/05/24 12:08:37;;;;;;;1.70;1.60;;;;;;;17.40;64.71;100829.63;5053746;27;102049;-60
2022/05/24 12:11:13;;;;;;;1.77;1.60;;;;;;;17.39;65.18;100834.31;5053885;27;103462;-60
2022/05/24 12:14:11;;;;;;;1.42;1.33;;;;;;;17.39;64.58;100828.00;5052768;27;103907;-60
2022/05/24 12:16:45;;;;;;;1.77;1.67;;;;;;;17.38;65.19;100821.69;5052351;27;102188;-60
2022/05/24 12:19:48;;;;;;;1.60;1.50;;;;;;;17.39;64.87;100823.31;5051845;27;101980;-60